sensor_id;sensor_type;location;lat;lon;timestamp;P1;durP1;ratioP1;P2;durP2;ratioP2
27161;SDS011;54464;50.558;9.704;2022-08-19T00:01:30;28.30;;;25.40;;
27161;SDS011;54464;50.558;9.704;2022-08-19T00:03:57;29.67;;;26.20;;
27161;SDS011;54464;50.558;9.704;2022-08-19T00:06:23;30.27;;;25.73;;
27161;SDS011;54464;50.558;9.704;2022-08-19T00:08:50;29.97;;;26.77;;
27161;SDS011;54464;50.558;9.704;2022-08-19T00:11:16;28.17;;;25.17;;
27161;SDS011;54464;50.558;9.704;2022-08-19T00:13:42;28.60;;;25.50;;
27161;SDS011;54464;50.558;9.704;2022-08-19T00:16:08;28.00;;;24.77;;
27161;SDS011;54464;50.558;9.704;2022-08-19T00:18:34;28.70;;;25.60;;
27161;SDS011;54464;50.558;9.704;2022-08-19T00:20:59;29.07;;;25.70;;
27161;SDS011;54464;50.558;9.704;2022-08-19T00:23:25;29.40;;;25.50;;
27161;SDS011;54464;50.558;9.704;2022-08-19T00:25:52;29.60;;;26.47;;
27161;SDS011;54464;50.558;9.704;2022-08-19T00:28:18;28.30;;;25.27;;
27161;SDS011;54464;50.558;9.704;2022-08-19T00:30:45;29.67;;;26.40;;
27161;SDS011;54464;50.558;9.704;2022-08-19T00:33:11;29.97;;;26.77;;
27161;SDS011;54464;50.558;9.704;2022-08-19T00:35:36;29.63;;;26.53;;
27161;SDS011;54464;50.558;9.704;2022-08-19T00:38:03;28.67;;;25.57;;
27161;SDS011;54464;50.558;9.704;2022-08-19T00:40:31;29.53;;;25.43;;
27161;SDS011;54464;50.558;9.704;2022-08-19T00:42:57;28.83;;;25.30;;
27161;SDS011;54464;50.558;9.704;2022-08-19T00:45:24;30.20;;;26.90;;
27161;SDS011;54464;50.558;9.704;2022-08-19T00:47:51;29.73;;;26.10;;
27161;SDS011;54464;50.558;9.704;2022-08-19T00:50:18;29.50;;;26.30;;
27161;SDS011;54464;50.558;9.704;2022-08-19T00:52:46;30.07;;;26.13;;
27161;SDS011;54464;50.558;9.704;2022-08-19T00:55:19;29.80;;;26.60;;
27161;SDS011;54464;50.558;9.704;2022-08-19T00:57:53;29.10;;;25.97;;
27161;SDS011;54464;50.558;9.704;2022-08-19T01:00:23;31.23;;;26.47;;
27161;SDS011;54464;50.558;9.704;2022-08-19T01:02:51;29.30;;;26.17;;
27161;SDS011;54464;50.558;9.704;2022-08-19T01:05:20;32.80;;;27.03;;
27161;SDS011;54464;50.558;9.704;2022-08-19T01:07:49;31.53;;;27.20;;
27161;SDS011;54464;50.558;9.704;2022-08-19T01:10:16;30.73;;;27.43;;
27161;SDS011;54464;50.558;9.704;2022-08-19T01:12:45;30.77;;;27.33;;
27161;SDS011;54464;50.558;9.704;2022-08-19T01:15:14;31.00;;;27.57;;
27161;SDS011;54464;50.558;9.704;2022-08-19T01:17:42;28.83;;;25.73;;
27161;SDS011;54464;50.558;9.704;2022-08-19T01:20:11;29.67;;;26.47;;
27161;SDS011;54464;50.558;9.704;2022-08-19T01:22:43;28.27;;;25.37;;
27161;SDS011;54464;50.558;9.704;2022-08-19T01:25:18;30.43;;;27.17;;
27161;SDS011;54464;50.558;9.704;2022-08-19T01:27:47;29.60;;;26.40;;
27161;SDS011;54464;50.558;9.704;2022-08-19T01:30:19;29.10;;;26.00;;
27161;SDS011;54464;50.558;9.704;2022-08-19T01:32:47;28.37;;;25.30;;
27161;SDS011;54464;50.558;9.704;2022-08-19T01:35:14;27.23;;;24.33;;
27161;SDS011;54464;50.558;9.704;2022-08-19T01:37:50;28.73;;;25.37;;
27161;SDS011;54464;50.558;9.704;2022-08-19T01:40:28;29.40;;;25.37;;
27161;SDS011;54464;50.558;9.704;2022-08-19T01:42:56;28.17;;;25.23;;
27161;SDS011;54464;50.558;9.704;2022-08-19T01:45:23;27.93;;;24.93;;
27161;SDS011;54464;50.558;9.704;2022-08-19T01:47:51;27.60;;;24.80;;
27161;SDS011;54464;50.558;9.704;2022-08-19T01:50:17;27.23;;;23.73;;
27161;SDS011;54464;50.558;9.704;2022-08-19T01:52:43;28.93;;;25.93;;
27161;SDS011;54464;50.558;9.704;2022-08-19T01:55:11;27.13;;;24.10;;
27161;SDS011;54464;50.558;9.704;2022-08-19T01:57:39;26.43;;;23.63;;
27161;SDS011;54464;50.558;9.704;2022-08-19T02:00:10;25.13;;;22.53;;
27161;SDS011;54464;50.558;9.704;2022-08-19T02:02:39;27.37;;;24.57;;
27161;SDS011;54464;50.558;9.704;2022-08-19T02:05:04;26.53;;;23.70;;
27161;SDS011;54464;50.558;9.704;2022-08-19T02:07:33;26.47;;;23.77;;
27161;SDS011;54464;50.558;9.704;2022-08-19T02:10:02;27.50;;;24.53;;
27161;SDS011;54464;50.558;9.704;2022-08-19T02:12:28;27.27;;;24.47;;
27161;SDS011;54464;50.558;9.704;2022-08-19T02:14:54;27.73;;;24.30;;
27161;SDS011;54464;50.558;9.704;2022-08-19T02:17:20;26.77;;;23.90;;
27161;SDS011;54464;50.558;9.704;2022-08-19T02:19:45;28.17;;;25.27;;
27161;SDS011;54464;50.558;9.704;2022-08-19T02:22:11;27.00;;;24.20;;
27161;SDS011;54464;50.558;9.704;2022-08-19T02:24:36;27.63;;;24.83;;
27161;SDS011;54464;50.558;9.704;2022-08-19T02:27:03;27.30;;;24.57;;
27161;SDS011;54464;50.558;9.704;2022-08-19T02:29:29;25.23;;;22.70;;
27161;SDS011;54464;50.558;9.704;2022-08-19T02:31:55;24.90;;;22.40;;
27161;SDS011;54464;50.558;9.704;2022-08-19T02:34:21;26.47;;;23.47;;
27161;SDS011;54464;50.558;9.704;2022-08-19T02:36:47;26.93;;;24.23;;
27161;SDS011;54464;50.558;9.704;2022-08-19T02:39:12;26.77;;;24.00;;
27161;SDS011;54464;50.558;9.704;2022-08-19T02:41:38;26.33;;;23.53;;
27161;SDS011;54464;50.558;9.704;2022-08-19T02:44:04;27.53;;;24.63;;
27161;SDS011;54464;50.558;9.704;2022-08-19T02:46:30;25.73;;;23.00;;
27161;SDS011;54464;50.558;9.704;2022-08-19T02:48:58;24.80;;;22.30;;
27161;SDS011;54464;50.558;9.704;2022-08-19T02:51:31;23.53;;;21.00;;
27161;SDS011;54464;50.558;9.704;2022-08-19T02:54:02;23.57;;;21.00;;
27161;SDS011;54464;50.558;9.704;2022-08-19T02:56:29;24.30;;;21.90;;
27161;SDS011;54464;50.558;9.704;2022-08-19T02:58:56;24.33;;;21.87;;
27161;SDS011;54464;50.558;9.704;2022-08-19T03:01:32;24.13;;;21.83;;
27161;SDS011;54464;50.558;9.704;2022-08-19T03:03:58;24.60;;;22.03;;
27161;SDS011;54464;50.558;9.704;2022-08-19T03:06:26;25.17;;;22.60;;
27161;SDS011;54464;50.558;9.704;2022-08-19T03:08:52;24.33;;;21.83;;
27161;SDS011;54464;50.558;9.704;2022-08-19T03:11:21;22.43;;;20.30;;
27161;SDS011;54464;50.558;9.704;2022-08-19T03:13:47;23.93;;;21.50;;
27161;SDS011;54464;50.558;9.704;2022-08-19T03:16:17;25.00;;;22.50;;
27161;SDS011;54464;50.558;9.704;2022-08-19T03:18:44;22.83;;;20.63;;
27161;SDS011;54464;50.558;9.704;2022-08-19T03:21:10;25.53;;;22.13;;
27161;SDS011;54464;50.558;9.704;2022-08-19T03:23:44;24.83;;;22.27;;
27161;SDS011;54464;50.558;9.704;2022-08-19T03:26:10;24.90;;;22.30;;
27161;SDS011;54464;50.558;9.704;2022-08-19T03:28:36;23.73;;;21.33;;
27161;SDS011;54464;50.558;9.704;2022-08-19T03:31:06;23.43;;;21.13;;
27161;SDS011;54464;50.558;9.704;2022-08-19T03:33:35;26.03;;;23.33;;
27161;SDS011;54464;50.558;9.704;2022-08-19T03:38:47;24.57;;;21.97;;
27161;SDS011;54464;50.558;9.704;2022-08-19T03:41:17;25.23;;;22.63;;
27161;SDS011;54464;50.558;9.704;2022-08-19T03:43:44;24.23;;;21.80;;
27161;SDS011;54464;50.558;9.704;2022-08-19T03:46:15;23.53;;;21.13;;
27161;SDS011;54464;50.558;9.704;2022-08-19T03:48:45;25.07;;;22.57;;
27161;SDS011;54464;50.558;9.704;2022-08-19T03:51:19;25.30;;;22.63;;
27161;SDS011;54464;50.558;9.704;2022-08-19T03:53:50;23.73;;;21.43;;
27161;SDS011;54464;50.558;9.704;2022-08-19T03:56:16;24.53;;;22.07;;
27161;SDS011;54464;50.558;9.704;2022-08-19T03:58:42;24.93;;;22.37;;
27161;SDS011;54464;50.558;9.704;2022-08-19T04:01:09;25.10;;;22.57;;
27161;SDS011;54464;50.558;9.704;2022-08-19T04:03:38;25.73;;;23.03;;
27161;SDS011;54464;50.558;9.704;2022-08-19T04:06:14;24.27;;;21.80;;
27161;SDS011;54464;50.558;9.704;2022-08-19T04:08:42;24.77;;;22.27;;
27161;SDS011;54464;50.558;9.704;2022-08-19T04:11:12;26.13;;;23.47;;
27161;SDS011;54464;50.558;9.704;2022-08-19T04:13:40;26.33;;;23.57;;
27161;SDS011;54464;50.558;9.704;2022-08-19T04:16:08;25.63;;;23.03;;
27161;SDS011;54464;50.558;9.704;2022-08-19T04:18:35;26.70;;;24.00;;
27161;SDS011;54464;50.558;9.704;2022-08-19T04:21:02;26.63;;;23.93;;
27161;SDS011;54464;50.558;9.704;2022-08-19T04:23:29;25.97;;;23.27;;
27161;SDS011;54464;50.558;9.704;2022-08-19T04:25:55;25.20;;;22.60;;
27161;SDS011;54464;50.558;9.704;2022-08-19T04:28:21;25.87;;;23.20;;
27161;SDS011;54464;50.558;9.704;2022-08-19T04:30:48;25.03;;;22.53;;
27161;SDS011;54464;50.558;9.704;2022-08-19T04:33:16;27.13;;;24.07;;
27161;SDS011;54464;50.558;9.704;2022-08-19T04:35:45;27.20;;;24.40;;
27161;SDS011;54464;50.558;9.704;2022-08-19T04:38:13;22.57;;;20.33;;
27161;SDS011;54464;50.558;9.704;2022-08-19T04:40:41;25.90;;;23.30;;
27161;SDS011;54464;50.558;9.704;2022-08-19T04:43:27;24.17;;;21.67;;
27161;SDS011;54464;50.558;9.704;2022-08-19T04:45:54;22.77;;;20.43;;
27161;SDS011;54464;50.558;9.704;2022-08-19T04:48:20;22.67;;;20.47;;
27161;SDS011;54464;50.558;9.704;2022-08-19T04:50:51;22.13;;;19.93;;
27161;SDS011;54464;50.558;9.704;2022-08-19T04:53:22;23.47;;;21.20;;
27161;SDS011;54464;50.558;9.704;2022-08-19T04:55:53;23.43;;;21.03;;
27161;SDS011;54464;50.558;9.704;2022-08-19T04:58:24;23.00;;;20.70;;
27161;SDS011;54464;50.558;9.704;2022-08-19T05:00:51;24.00;;;21.63;;
27161;SDS011;54464;50.558;9.704;2022-08-19T05:03:17;25.40;;;22.70;;
27161;SDS011;54464;50.558;9.704;2022-08-19T05:05:43;25.77;;;23.10;;
27161;SDS011;54464;50.558;9.704;2022-08-19T05:08:13;25.53;;;22.87;;
27161;SDS011;54464;50.558;9.704;2022-08-19T05:10:44;25.73;;;23.07;;
27161;SDS011;54464;50.558;9.704;2022-08-19T05:13:12;25.97;;;23.20;;
27161;SDS011;54464;50.558;9.704;2022-08-19T05:15:37;23.80;;;21.30;;
27161;SDS011;54464;50.558;9.704;2022-08-19T05:18:03;23.13;;;20.93;;
27161;SDS011;54464;50.558;9.704;2022-08-19T05:20:47;24.70;;;22.30;;
27161;SDS011;54464;50.558;9.704;2022-08-19T05:23:31;24.37;;;21.90;;
27161;SDS011;54464;50.558;9.704;2022-08-19T05:25:57;22.93;;;20.73;;
27161;SDS011;54464;50.558;9.704;2022-08-19T05:28:23;24.50;;;22.20;;
27161;SDS011;54464;50.558;9.704;2022-08-19T05:30:48;23.23;;;20.83;;
27161;SDS011;54464;50.558;9.704;2022-08-19T05:33:16;23.23;;;20.93;;
27161;SDS011;54464;50.558;9.704;2022-08-19T05:35:42;22.03;;;19.93;;
27161;SDS011;54464;50.558;9.704;2022-08-19T05:38:09;23.53;;;21.17;;
27161;SDS011;54464;50.558;9.704;2022-08-19T05:40:36;22.17;;;20.07;;
27161;SDS011;54464;50.558;9.704;2022-08-19T05:43:03;23.13;;;20.93;;
27161;SDS011;54464;50.558;9.704;2022-08-19T05:45:30;24.57;;;21.00;;
27161;SDS011;54464;50.558;9.704;2022-08-19T05:47:56;22.17;;;19.93;;
27161;SDS011;54464;50.558;9.704;2022-08-19T05:50:23;21.97;;;19.87;;
27161;SDS011;54464;50.558;9.704;2022-08-19T05:52:50;21.67;;;19.47;;
27161;SDS011;54464;50.558;9.704;2022-08-19T05:55:16;20.73;;;18.73;;
27161;SDS011;54464;50.558;9.704;2022-08-19T05:57:41;20.00;;;18.00;;
27161;SDS011;54464;50.558;9.704;2022-08-19T06:00:07;19.63;;;17.57;;
27161;SDS011;54464;50.558;9.704;2022-08-19T06:02:35;22.90;;;19.73;;
27161;SDS011;54464;50.558;9.704;2022-08-19T06:05:02;21.47;;;19.13;;
27161;SDS011;54464;50.558;9.704;2022-08-19T06:07:30;20.73;;;18.63;;
27161;SDS011;54464;50.558;9.704;2022-08-19T06:09:56;21.30;;;19.20;;
27161;SDS011;54464;50.558;9.704;2022-08-19T06:12:22;20.30;;;18.17;;
27161;SDS011;54464;50.558;9.704;2022-08-19T06:14:56;21.87;;;18.97;;
27161;SDS011;54464;50.558;9.704;2022-08-19T06:17:22;21.23;;;19.03;;
27161;SDS011;54464;50.558;9.704;2022-08-19T06:19:50;19.43;;;17.37;;
27161;SDS011;54464;50.558;9.704;2022-08-19T06:22:16;17.77;;;16.07;;
27161;SDS011;54464;50.558;9.704;2022-08-19T06:24:42;18.57;;;16.23;;
27161;SDS011;54464;50.558;9.704;2022-08-19T06:27:09;17.50;;;15.80;;
27161;SDS011;54464;50.558;9.704;2022-08-19T06:29:38;17.23;;;15.53;;
27161;SDS011;54464;50.558;9.704;2022-08-19T06:32:04;15.83;;;14.40;;
27161;SDS011;54464;50.558;9.704;2022-08-19T06:34:31;15.23;;;13.73;;
27161;SDS011;54464;50.558;9.704;2022-08-19T06:37:00;15.23;;;13.73;;
27161;SDS011;54464;50.558;9.704;2022-08-19T06:39:28;18.40;;;16.60;;
27161;SDS011;54464;50.558;9.704;2022-08-19T06:41:57;18.83;;;16.87;;
27161;SDS011;54464;50.558;9.704;2022-08-19T06:44:26;18.53;;;16.63;;
27161;SDS011;54464;50.558;9.704;2022-08-19T06:46:53;18.20;;;16.40;;
27161;SDS011;54464;50.558;9.704;2022-08-19T06:49:20;18.20;;;16.50;;
27161;SDS011;54464;50.558;9.704;2022-08-19T06:51:48;17.07;;;15.47;;
27161;SDS011;54464;50.558;9.704;2022-08-19T06:54:15;18.13;;;16.27;;
27161;SDS011;54464;50.558;9.704;2022-08-19T06:56:42;17.37;;;15.70;;
27161;SDS011;54464;50.558;9.704;2022-08-19T06:59:11;17.93;;;15.20;;
27161;SDS011;54464;50.558;9.704;2022-08-19T07:01:40;17.73;;;15.83;;
27161;SDS011;54464;50.558;9.704;2022-08-19T07:04:11;15.70;;;14.27;;
27161;SDS011;54464;50.558;9.704;2022-08-19T07:06:38;15.83;;;14.30;;
27161;SDS011;54464;50.558;9.704;2022-08-19T07:09:04;16.70;;;14.70;;
27161;SDS011;54464;50.558;9.704;2022-08-19T07:11:31;16.97;;;15.47;;
27161;SDS011;54464;50.558;9.704;2022-08-19T07:13:58;17.47;;;15.67;;
27161;SDS011;54464;50.558;9.704;2022-08-19T07:16:24;18.00;;;16.20;;
27161;SDS011;54464;50.558;9.704;2022-08-19T07:18:50;16.70;;;14.90;;
27161;SDS011;54464;50.558;9.704;2022-08-19T07:21:21;16.80;;;15.20;;
27161;SDS011;54464;50.558;9.704;2022-08-19T07:23:52;15.97;;;14.27;;
27161;SDS011;54464;50.558;9.704;2022-08-19T07:26:29;15.30;;;13.77;;
27161;SDS011;54464;50.558;9.704;2022-08-19T07:28:59;14.23;;;12.83;;
27161;SDS011;54464;50.558;9.704;2022-08-19T07:31:27;14.53;;;12.43;;
27161;SDS011;54464;50.558;9.704;2022-08-19T07:33:54;14.50;;;13.00;;
27161;SDS011;54464;50.558;9.704;2022-08-19T07:36:24;13.77;;;12.37;;
27161;SDS011;54464;50.558;9.704;2022-08-19T07:38:57;12.33;;;11.23;;
27161;SDS011;54464;50.558;9.704;2022-08-19T07:41:26;11.97;;;10.77;;
27161;SDS011;54464;50.558;9.704;2022-08-19T07:43:54;10.97;;;9.87;;
27161;SDS011;54464;50.558;9.704;2022-08-19T07:46:20;9.83;;;8.80;;
27161;SDS011;54464;50.558;9.704;2022-08-19T07:48:47;9.83;;;8.80;;
27161;SDS011;54464;50.558;9.704;2022-08-19T07:51:16;9.73;;;8.57;;
27161;SDS011;54464;50.558;9.704;2022-08-19T07:53:44;9.67;;;8.60;;
27161;SDS011;54464;50.558;9.704;2022-08-19T07:56:11;7.83;;;7.20;;
27161;SDS011;54464;50.558;9.704;2022-08-19T07:58:38;8.33;;;7.47;;
27161;SDS011;54464;50.558;9.704;2022-08-19T08:01:07;9.20;;;7.53;;
27161;SDS011;54464;50.558;9.704;2022-08-19T08:03:35;8.23;;;6.70;;
27161;SDS011;54464;50.558;9.704;2022-08-19T08:06:20;9.10;;;7.23;;
27161;SDS011;54464;50.558;9.704;2022-08-19T08:09:05;9.37;;;7.70;;
27161;SDS011;54464;50.558;9.704;2022-08-19T08:11:41;10.90;;;8.13;;
27161;SDS011;54464;50.558;9.704;2022-08-19T08:14:14;7.80;;;7.00;;
27161;SDS011;54464;50.558;9.704;2022-08-19T08:16:42;7.43;;;6.83;;
27161;SDS011;54464;50.558;9.704;2022-08-19T08:19:10;7.27;;;6.57;;
27161;SDS011;54464;50.558;9.704;2022-08-19T08:21:39;7.77;;;6.93;;
27161;SDS011;54464;50.558;9.704;2022-08-19T08:24:06;8.73;;;6.57;;
27161;SDS011;54464;50.558;9.704;2022-08-19T08:26:32;6.90;;;6.20;;
27161;SDS011;54464;50.558;9.704;2022-08-19T08:28:57;7.00;;;6.10;;
27161;SDS011;54464;50.558;9.704;2022-08-19T08:31:23;8.00;;;5.70;;
27161;SDS011;54464;50.558;9.704;2022-08-19T08:33:49;6.23;;;5.57;;
27161;SDS011;54464;50.558;9.704;2022-08-19T08:36:15;6.57;;;5.80;;
27161;SDS011;54464;50.558;9.704;2022-08-19T08:38:42;5.93;;;5.33;;
27161;SDS011;54464;50.558;9.704;2022-08-19T08:41:16;7.30;;;5.23;;
27161;SDS011;54464;50.558;9.704;2022-08-19T08:43:47;7.23;;;5.10;;
27161;SDS011;54464;50.558;9.704;2022-08-19T08:49:02;5.50;;;5.00;;
27161;SDS011;54464;50.558;9.704;2022-08-19T08:51:50;5.90;;;5.03;;
27161;SDS011;54464;50.558;9.704;2022-08-19T08:54:19;5.47;;;4.97;;
27161;SDS011;54464;50.558;9.704;2022-08-19T08:56:47;6.20;;;5.70;;
27161;SDS011;54464;50.558;9.704;2022-08-19T08:59:21;5.40;;;4.90;;
27161;SDS011;54464;50.558;9.704;2022-08-19T09:01:53;6.20;;;5.50;;
27161;SDS011;54464;50.558;9.704;2022-08-19T09:04:18;5.30;;;4.80;;
27161;SDS011;54464;50.558;9.704;2022-08-19T09:06:49;5.20;;;4.53;;
27161;SDS011;54464;50.558;9.704;2022-08-19T09:09:35;6.27;;;4.87;;
27161;SDS011;54464;50.558;9.704;2022-08-19T09:12:10;5.30;;;4.90;;
27161;SDS011;54464;50.558;9.704;2022-08-19T09:14:53;5.90;;;5.30;;
27161;SDS011;54464;50.558;9.704;2022-08-19T09:17:27;6.00;;;5.47;;
27161;SDS011;54464;50.558;9.704;2022-08-19T09:22:34;5.13;;;4.63;;
27161;SDS011;54464;50.558;9.704;2022-08-19T09:25:04;5.63;;;5.13;;
27161;SDS011;54464;50.558;9.704;2022-08-19T09:27:32;4.87;;;4.37;;
27161;SDS011;54464;50.558;9.704;2022-08-19T09:29:58;4.70;;;4.30;;
27161;SDS011;54464;50.558;9.704;2022-08-19T09:32:24;7.03;;;4.50;;
27161;SDS011;54464;50.558;9.704;2022-08-19T09:34:52;6.27;;;4.57;;
27161;SDS011;54464;50.558;9.704;2022-08-19T09:37:23;4.60;;;4.13;;
27161;SDS011;54464;50.558;9.704;2022-08-19T09:39:50;5.60;;;4.73;;
27161;SDS011;54464;50.558;9.704;2022-08-19T09:42:16;4.77;;;4.27;;
27161;SDS011;54464;50.558;9.704;2022-08-19T09:44:42;4.33;;;3.93;;
27161;SDS011;54464;50.558;9.704;2022-08-19T09:47:09;5.03;;;4.00;;
27161;SDS011;54464;50.558;9.704;2022-08-19T09:49:36;4.10;;;3.57;;
27161;SDS011;54464;50.558;9.704;2022-08-19T09:52:04;4.10;;;3.70;;
27161;SDS011;54464;50.558;9.704;2022-08-19T09:54:31;7.10;;;4.33;;
27161;SDS011;54464;50.558;9.704;2022-08-19T09:56:58;4.37;;;3.80;;
27161;SDS011;54464;50.558;9.704;2022-08-19T09:59:27;3.77;;;3.37;;
27161;SDS011;54464;50.558;9.704;2022-08-19T10:01:53;3.90;;;3.50;;
27161;SDS011;54464;50.558;9.704;2022-08-19T10:04:19;4.40;;;4.00;;
27161;SDS011;54464;50.558;9.704;2022-08-19T10:06:46;3.67;;;3.37;;
27161;SDS011;54464;50.558;9.704;2022-08-19T10:09:14;5.47;;;4.10;;
27161;SDS011;54464;50.558;9.704;2022-08-19T10:11:42;4.13;;;3.30;;
27161;SDS011;54464;50.558;9.704;2022-08-19T10:14:14;3.70;;;3.40;;
27161;SDS011;54464;50.558;9.704;2022-08-19T10:16:42;3.73;;;3.33;;
27161;SDS011;54464;50.558;9.704;2022-08-19T10:19:08;4.83;;;3.43;;
27161;SDS011;54464;50.558;9.704;2022-08-19T10:21:34;5.27;;;3.73;;
27161;SDS011;54464;50.558;9.704;2022-08-19T10:24:01;3.77;;;3.10;;
27161;SDS011;54464;50.558;9.704;2022-08-19T10:26:33;3.70;;;3.40;;
27161;SDS011;54464;50.558;9.704;2022-08-19T10:29:02;3.47;;;3.00;;
27161;SDS011;54464;50.558;9.704;2022-08-19T10:31:30;3.63;;;3.33;;
27161;SDS011;54464;50.558;9.704;2022-08-19T10:33:58;4.03;;;3.20;;
27161;SDS011;54464;50.558;9.704;2022-08-19T10:36:29;3.35;;;3.05;;
27161;SDS011;54464;50.558;9.704;2022-08-19T10:38:57;3.15;;;2.85;;
27161;SDS011;54464;50.558;9.704;2022-08-19T10:41:26;3.42;;;3.13;;
27161;SDS011;54464;50.558;9.704;2022-08-19T10:43:55;3.63;;;3.00;;
27161;SDS011;54464;50.558;9.704;2022-08-19T10:46:26;3.80;;;3.47;;
27161;SDS011;54464;50.558;9.704;2022-08-19T10:48:53;4.78;;;3.70;;
27161;SDS011;54464;50.558;9.704;2022-08-19T10:51:19;3.60;;;2.92;;
27161;SDS011;54464;50.558;9.704;2022-08-19T10:54:04;4.38;;;2.90;;
27161;SDS011;54464;50.558;9.704;2022-08-19T10:56:30;2.80;;;2.60;;
27161;SDS011;54464;50.558;9.704;2022-08-19T10:59:15;2.85;;;2.60;;
27161;SDS011;54464;50.558;9.704;2022-08-19T11:01:43;3.60;;;3.03;;
27161;SDS011;54464;50.558;9.704;2022-08-19T11:04:10;3.35;;;2.78;;
27161;SDS011;54464;50.558;9.704;2022-08-19T11:06:39;2.97;;;2.55;;
27161;SDS011;54464;50.558;9.704;2022-08-19T11:09:06;3.03;;;2.50;;
27161;SDS011;54464;50.558;9.704;2022-08-19T11:11:32;3.08;;;2.78;;
27161;SDS011;54464;50.558;9.704;2022-08-19T11:14:04;3.90;;;2.50;;
27161;SDS011;54464;50.558;9.704;2022-08-19T11:16:30;4.15;;;2.63;;
27161;SDS011;54464;50.558;9.704;2022-08-19T11:18:57;4.57;;;2.55;;
27161;SDS011;54464;50.558;9.704;2022-08-19T11:21:25;3.20;;;2.58;;
27161;SDS011;54464;50.558;9.704;2022-08-19T11:23:52;2.67;;;2.38;;
27161;SDS011;54464;50.558;9.704;2022-08-19T11:26:20;3.33;;;2.47;;
27161;SDS011;54464;50.558;9.704;2022-08-19T11:28:46;3.80;;;2.70;;
27161;SDS011;54464;50.558;9.704;2022-08-19T11:31:14;3.50;;;2.58;;
27161;SDS011;54464;50.558;9.704;2022-08-19T11:33:42;4.22;;;2.83;;
27161;SDS011;54464;50.558;9.704;2022-08-19T11:36:09;2.85;;;2.65;;
27161;SDS011;54464;50.558;9.704;2022-08-19T11:38:35;4.03;;;2.70;;
27161;SDS011;54464;50.558;9.704;2022-08-19T11:41:03;2.35;;;2.10;;
27161;SDS011;54464;50.558;9.704;2022-08-19T11:43:32;2.33;;;2.00;;
27161;SDS011;54464;50.558;9.704;2022-08-19T11:45:58;2.33;;;1.70;;
27161;SDS011;54464;50.558;9.704;2022-08-19T11:48:24;2.38;;;1.80;;
27161;SDS011;54464;50.558;9.704;2022-08-19T11:50:53;2.38;;;1.70;;
27161;SDS011;54464;50.558;9.704;2022-08-19T11:53:21;2.40;;;2.20;;
27161;SDS011;54464;50.558;9.704;2022-08-19T11:55:48;2.10;;;1.90;;
27161;SDS011;54464;50.558;9.704;2022-08-19T11:58:15;2.35;;;2.20;;
27161;SDS011;54464;50.558;9.704;2022-08-19T12:00:42;2.72;;;2.30;;
27161;SDS011;54464;50.558;9.704;2022-08-19T12:03:10;3.30;;;2.08;;
27161;SDS011;54464;50.558;9.704;2022-08-19T12:05:38;2.47;;;2.22;;
27161;SDS011;54464;50.558;9.704;2022-08-19T12:08:05;2.40;;;2.20;;
27161;SDS011;54464;50.558;9.704;2022-08-19T12:10:31;2.53;;;2.30;;
27161;SDS011;54464;50.558;9.704;2022-08-19T12:12:58;3.67;;;2.20;;
27161;SDS011;54464;50.558;9.704;2022-08-19T12:15:23;2.70;;;2.28;;
27161;SDS011;54464;50.558;9.704;2022-08-19T12:17:49;2.30;;;2.10;;
27161;SDS011;54464;50.558;9.704;2022-08-19T12:20:14;4.05;;;2.30;;
27161;SDS011;54464;50.558;9.704;2022-08-19T12:22:42;2.72;;;2.10;;
27161;SDS011;54464;50.558;9.704;2022-08-19T12:25:11;2.55;;;2.10;;
27161;SDS011;54464;50.558;9.704;2022-08-19T12:27:38;2.45;;;2.08;;
27161;SDS011;54464;50.558;9.704;2022-08-19T12:30:04;2.95;;;1.98;;
27161;SDS011;54464;50.558;9.704;2022-08-19T12:32:32;2.70;;;2.13;;
27161;SDS011;54464;50.558;9.704;2022-08-19T12:34:58;2.35;;;1.95;;
27161;SDS011;54464;50.558;9.704;2022-08-19T12:37:23;2.28;;;2.08;;
27161;SDS011;54464;50.558;9.704;2022-08-19T12:39:49;2.10;;;1.90;;
27161;SDS011;54464;50.558;9.704;2022-08-19T12:42:15;3.38;;;1.92;;
27161;SDS011;54464;50.558;9.704;2022-08-19T12:44:42;2.03;;;1.92;;
27161;SDS011;54464;50.558;9.704;2022-08-19T12:47:09;2.10;;;1.90;;
27161;SDS011;54464;50.558;9.704;2022-08-19T12:49:36;3.05;;;1.90;;
27161;SDS011;54464;50.558;9.704;2022-08-19T12:52:04;2.20;;;1.80;;
27161;SDS011;54464;50.558;9.704;2022-08-19T12:54:30;2.13;;;1.90;;
27161;SDS011;54464;50.558;9.704;2022-08-19T12:56:57;2.85;;;1.83;;
27161;SDS011;54464;50.558;9.704;2022-08-19T12:59:24;3.35;;;1.83;;
27161;SDS011;54464;50.558;9.704;2022-08-19T13:01:50;2.45;;;2.00;;
27161;SDS011;54464;50.558;9.704;2022-08-19T13:04:16;3.20;;;2.20;;
27161;SDS011;54464;50.558;9.704;2022-08-19T13:06:42;2.90;;;2.00;;
27161;SDS011;54464;50.558;9.704;2022-08-19T13:09:08;2.05;;;1.85;;
27161;SDS011;54464;50.558;9.704;2022-08-19T13:11:34;2.50;;;2.00;;
27161;SDS011;54464;50.558;9.704;2022-08-19T13:14:00;2.08;;;1.90;;
27161;SDS011;54464;50.558;9.704;2022-08-19T13:16:27;2.50;;;2.15;;
27161;SDS011;54464;50.558;9.704;2022-08-19T13:18:54;3.60;;;1.95;;
27161;SDS011;54464;50.558;9.704;2022-08-19T13:21:22;2.85;;;2.00;;
27161;SDS011;54464;50.558;9.704;2022-08-19T13:23:50;2.53;;;2.03;;
27161;SDS011;54464;50.558;9.704;2022-08-19T13:26:17;2.78;;;1.90;;
27161;SDS011;54464;50.558;9.704;2022-08-19T13:28:43;3.15;;;2.00;;
27161;SDS011;54464;50.558;9.704;2022-08-19T13:31:30;2.38;;;1.90;;
27161;SDS011;54464;50.558;9.704;2022-08-19T13:34:17;2.70;;;1.95;;
27161;SDS011;54464;50.558;9.704;2022-08-19T13:36:45;2.28;;;2.00;;
27161;SDS011;54464;50.558;9.704;2022-08-19T13:39:11;1.88;;;1.77;;
27161;SDS011;54464;50.558;9.704;2022-08-19T13:41:37;1.98;;;1.85;;
27161;SDS011;54464;50.558;9.704;2022-08-19T13:44:12;2.30;;;2.10;;
27161;SDS011;54464;50.558;9.704;2022-08-19T13:46:40;2.33;;;2.13;;
27161;SDS011;54464;50.558;9.704;2022-08-19T13:49:10;2.13;;;1.92;;
27161;SDS011;54464;50.558;9.704;2022-08-19T13:51:40;2.90;;;2.00;;
27161;SDS011;54464;50.558;9.704;2022-08-19T13:54:07;2.70;;;1.90;;
27161;SDS011;54464;50.558;9.704;2022-08-19T13:56:34;2.35;;;1.80;;
27161;SDS011;54464;50.558;9.704;2022-08-19T13:59:00;2.15;;;1.90;;
27161;SDS011;54464;50.558;9.704;2022-08-19T14:01:26;2.47;;;2.20;;
27161;SDS011;54464;50.558;9.704;2022-08-19T14:03:52;4.20;;;2.17;;
27161;SDS011;54464;50.558;9.704;2022-08-19T14:06:18;2.30;;;2.10;;
27161;SDS011;54464;50.558;9.704;2022-08-19T14:08:45;2.65;;;1.88;;
27161;SDS011;54464;50.558;9.704;2022-08-19T14:11:10;2.33;;;2.13;;
27161;SDS011;54464;50.558;9.704;2022-08-19T14:13:36;1.98;;;1.88;;
27161;SDS011;54464;50.558;9.704;2022-08-19T14:16:06;3.17;;;2.20;;
27161;SDS011;54464;50.558;9.704;2022-08-19T14:18:36;2.22;;;1.95;;
27161;SDS011;54464;50.558;9.704;2022-08-19T14:21:04;2.75;;;2.22;;
27161;SDS011;54464;50.558;9.704;2022-08-19T14:23:31;2.60;;;2.10;;
27161;SDS011;54464;50.558;9.704;2022-08-19T14:26:05;2.70;;;2.00;;
27161;SDS011;54464;50.558;9.704;2022-08-19T14:28:32;2.75;;;2.15;;
27161;SDS011;54464;50.558;9.704;2022-08-19T14:30:58;2.67;;;2.30;;
27161;SDS011;54464;50.558;9.704;2022-08-19T14:33:24;2.95;;;2.30;;
27161;SDS011;54464;50.558;9.704;2022-08-19T14:35:49;2.90;;;2.00;;
27161;SDS011;54464;50.558;9.704;2022-08-19T14:38:17;2.15;;;1.98;;
27161;SDS011;54464;50.558;9.704;2022-08-19T14:40:43;2.55;;;1.90;;
27161;SDS011;54464;50.558;9.704;2022-08-19T14:43:10;2.70;;;2.10;;
27161;SDS011;54464;50.558;9.704;2022-08-19T14:45:37;2.10;;;1.98;;
27161;SDS011;54464;50.558;9.704;2022-08-19T14:48:04;2.28;;;2.08;;